DK0GS-10 Weather Reports


time (UTC)temp
C
wind
direction
speed
KPH
gust
KPH
rain 1hr
cm
rain 24hr
cm
rain mn
cm
humidity
%
barometer
mb
20190819104017 18 270 4.8 12.9 0.00 1.88 0.03 62 1015.1
20190819103017 18 292 4.8 14.5 0.00 1.88 0.03 63 1014.9
20190819102016 18 225 4.8 14.5 0.00 1.88 0.03 64 1014.9
20190819101016 18 270 6.4 16.1 0.00 1.88 0.03 64 1014.8
20190819100017 17 292 4.8 11.3 0.00 1.88 0.03 64 1014.8
20190819095017 18 270 6.4 16.1 0.00 1.88 0.03 63 1014.7
20190819094016 18 292 6.4 12.9 0.00 1.88 0.03 63 1014.7
20190819093017 18 270 4.8 12.9 0.00 1.88 0.03 64 1014.5
20190819092018 17 270 6.4 16.1 0.00 1.88 0.03 65 1014.5
20190819091017 17 270 4.8 12.9 0.00 1.88 0.03 68 1014.5
20190819090016 17 270 4.8 14.5 0.00 1.88 0.03 68 1014.5
20190819085016 17 270 4.8 12.9 0.00 1.88 0.03 68 1014.3
20190819084016 17 270 4.8 17.7 0.00 1.88 0.03 69 1014.3
20190819083016 17 270 4.8 14.5 0.00 1.88 0.03 69 1014.2
20190819082016 16 270 6.4 14.5 0.00 1.88 0.03 68 1014.1
20190819081016 16 270 6.4 12.9 0.00 1.88 0.03 69 1014.0
20190819080016 16 270 8.0 17.7 0.00 1.88 0.03 70 1014.0
20190819075017 16 270 8.0 19.3 0.00 1.88 0.03 71 1014.0
20190819074016 16 270 9.7 20.9 0.00 1.88 0.03 71 1013.8
20190819073016 16 225 6.4 17.7 0.00 1.88 0.03 72 1013.6
20190819072016 16 292 4.8 14.5 0.00 1.88 0.03 73 1013.5
20190819071016 15 270 6.4 14.5 0.00 1.88 0.03 74 1013.5
20190819070017 15 292 8.0 20.9 0.00 1.88 0.03 74 1013.5
20190819065017 15 225 6.4 14.5 0.00 1.88 0.03 77 1013.4
20190819064016 15 270 8.0 24.1 0.00 1.88 0.03 81 1013.4
20190819063016 15 270 4.8 12.9 0.00 1.88 0.03 84 1013.3
20190819062016 15 225 3.2 9.7 0.00 1.88 0.03 88 1013.3
20190819061016 15 270 3.2 8.0 0.03 1.88 0.03 88 1013.2
20190819060016 15 270 3.2 8.0 0.03 1.88 0.03 90 1013.1
20190819055016 15 270 1.6 8.0 0.03 1.88 0.03 91 1013.1
20190819054016 14 270 1.6 6.4 0.03 1.91 0.03 92 1013.0
20190819053016 14 0.0 3.2 0.03 1.91 0.03 94 1012.9
20190819052016 13 0.0 1.6 0.03 1.91 0.03 94 1012.7
20190819051016 13 270 1.6 3.2 0.00 1.88 0.00 94 1012.6
20190819050016 13 0.0 3.2 0.00 1.88 0.00 94 1012.6
20190819045016 13 0.0 1.6 0.00 1.88 0.00 94 1012.6
20190819044016 13 0.0 1.6 0.00 1.88 0.00 94 1012.6
20190819043017 13 0.0 4.8 0.00 1.88 0.00 94 1012.8
20190819042016 13 0.0 1.6 0.00 1.88 0.00 94 1012.5
20190819041016 14 0.0 3.2 0.00 1.88 0.00 94 1012.6
20190819040016 14 270 1.6 4.8 0.00 1.88 0.00 94 1012.4
20190819035016 14 270 1.6 4.8 0.00 1.88 0.00 94 1012.3
20190819034016 14 0.0 4.8 0.00 1.91 0.00 94 1012.2
20190819033016 14 270 1.6 8.0 0.00 1.91 0.00 94 1012.2
20190819032016 14 270 1.6 4.8 0.00 1.91 0.00 95 1011.9
20190819031016 14 270 1.6 6.4 0.00 1.91 0.00 95 1011.9
20190819030016 14 0.0 6.4 0.00 1.91 0.00 95 1011.8
20190819025016 14 292 1.6 9.7 0.00 1.91 0.00 95 1011.6
20190819024016 14 292 1.6 6.4 0.00 1.91 0.00 95 1011.4
20190819023016 14 270 1.6 4.8 0.00 1.91 0.00 95 1011.5
20190819022016 14 270 1.6 4.8 0.00 1.91 0.00 95 1011.5
20190819021016 14 0.0 4.8 0.00 1.91 0.00 95 1011.4
20190819020016 14 0.0 4.8 0.00 1.91 0.00 95 1011.4
20190819015016 14 0.0 1.6 0.00 1.91 0.00 95 1011.5
20190819014016 14 0.0 3.2 0.00 1.93 0.00 95 1011.5
20190819013016 14 0.0 1.6 0.00 1.93 0.00 95 1011.4
20190819012015 14 0.0 3.2 0.00 1.93 0.00 95 1011.2
20190819011016 14 0.0 3.2 0.00 1.96 0.00 95 1011.2
20190819010016 14 0.0 3.2 0.00 1.96 0.00 94 1011.2
20190819005016 15 0.0 1.6 0.00 1.96 0.00 94 1010.8
20190819004016 14 0.0 1.6 0.00 1.96 0.00 94 1010.5
20190819003016 14 0.0 1.6 0.00 1.96 0.00 94 1010.3
20190819002015 14 0.0 0.0 0.00 1.96 0.00 94 1010.2
20190819001016 15 0.0 0.0 0.00 1.96 0.00 94 1010.2
20190819000015 15 0.0 1.6 0.00 1.96 0.00 94 1010.2
20190818235016 15 0.0 1.6 0.00 1.96 0.00 95 1010.3
20190818234015 14 0.0 3.2 0.00 1.96 0.00 96 1010.4
20190818233015 14 0.0 1.6 0.00 1.96 0.00 96 1010.3
20190818232015 14 0.0 3.2 0.00 1.96 0.00 96 1010.3
20190818231016 14 0.0 3.2 0.00 1.96 0.00 96 1010.2
20190818230016 14 0.0 0.0 0.00 1.96 0.00 96 1010.0
20190818225016 14 0.0 0.0 0.00 1.96 0.00 96 1009.9
20190818224016 14 0.0 0.0 0.00 1.96 0.00 96 1009.9
20190818223016 14 0.0 0.0 0.00 1.96 0.00 96 1009.7
20190818222016 14 0.0 0.0 0.00 1.96 0.00 96 1009.6
20190818221015 14 0.0 0.0 0.00 1.96 0.00 95 1009.4
20190818220016 15 0.0 0.0 0.00 1.96 1.96 96 1009.3
20190818215016 15 0.0 0.0 0.00 1.96 1.96 95 1009.3
20190818214016 15 0.0 0.0 0.00 1.96 1.96 96 1009.2
20190818213015 15 0.0 0.0 0.00 1.96 1.96 95 1009.2
20190818212017 15 0.0 0.0 0.00 1.98 1.96 95 1009.0
20190818211017 15 0.0 0.0 0.00 1.98 1.96 95 1009.0
20190818210016 15 0.0 0.0 0.00 1.98 1.96 95 1009.0
20190818205017 15 0.0 0.0 0.00 1.98 1.96 94 1008.9
20190818204018 15 0.0 0.0 0.00 1.98 1.96 94 1008.7
20190818203017 15 0.0 0.0 0.00 1.98 1.96 94 1008.7
20190818202018 15 0.0 0.0 0.00 1.98 1.96 93 1008.6
20190818201017 15 0.0 0.0 0.00 1.98 1.96 93 1008.5
20190818200017 16 0.0 0.0 0.00 1.98 1.96 92 1008.4
20190818195017 16 0.0 0.0 0.00 1.98 1.96 92 1008.3
20190818194017 16 0.0 4.8 0.00 1.98 1.96 91 1008.1
20190818193018 16 270 1.6 6.4 0.00 1.98 1.96 91 1008.0
20190818192017 17 0.0 3.2 0.00 1.98 1.96 91 1007.9
20190818191017 17 270 1.6 4.8 0.00 1.98 1.96 92 1007.9
20190818190017 17 270 1.6 8.0 0.00 1.98 1.96 93 1007.8
20190818185016 17 0.0 1.6 0.00 1.98 1.96 93 1007.8
20190818184017 17 0.0 3.2 0.00 1.98 1.96 93 1007.5
20190818183017 17 0.0 4.8 0.00 1.98 1.96 93 1007.4
20190818182017 18 270 1.6 4.8 0.03 1.98 1.96 93 1007.3
20190818181017 18 0.0 4.8 0.03 1.98 1.96 93 1007.0
20190818180017 18 0.0 4.8 0.05 1.98 1.96 94 1006.8
20190818175017 18 270 1.6 6.4 0.08 1.98 1.96 94 1006.6
20190818174017 18 0.0 1.6 0.10 1.98 1.96 94 1006.5
20190818173017 18 0.0 0.0 0.10 1.98 1.96 94 1006.2
20190818172017 18 0.0 1.6 0.48 1.96 1.93 94 1006.1
20190818171017 18 0.0 1.6 0.53 1.96 1.93 93 1005.9
20190818170017 18 0.0 1.6 0.51 1.93 1.91 93 1005.8
20190818165017 18 0.0 0.0 0.48 1.91 1.88 92 1005.9
20190818164017 18 270 1.6 8.0 0.46 1.88 1.85 91 1005.9
20190818163017 18 270 3.2 9.7 0.46 1.88 1.85 89 1005.4
20190818162021 20 0.0 4.8 0.05 1.45 1.42 87 1005.6
20190818161017 20 270 1.6 6.4 0.00 1.40 1.40 86 1005.5
20190818160017 20 270 4.8 12.9 0.00 1.40 1.40 86 1005.4
20190818155017 20 270 4.8 9.7 0.00 1.40 1.40 86 1005.4
20190818154017 20 270 1.6 4.8 0.00 1.40 1.40 87 1005.1
20190818153017 20 270 3.2 11.3 0.00 1.40 1.40 85 1005.0
20190818152017 20 225 3.2 11.3 0.00 1.40 1.40 87 1004.8
20190818151017 19 225 1.6 6.4 0.03 1.40 1.40 88 1004.7
20190818150018 19 270 3.2 11.3 0.25 1.40 1.40 89 1004.8
20190818145017 18 270 3.2 14.5 1.30 1.40 1.40 90 1005.0
20190818144017 18 292 4.8 11.3 1.30 1.40 1.40 91 1004.9
20190818143017 18 270 4.8 16.1 1.30 1.40 1.40 92 1004.7
20190818142017 18 225 3.2 9.7 1.30 1.40 1.40 93 1004.6
20190818141017 17 270 4.8 12.9 1.27 1.37 1.37 92 1004.6
20190818140017 18 270 8.0 22.5 1.04 1.17 1.14 88 1004.2
20190818135016 23 270 8.0 22.5 0.00 0.13 0.10 72 1004.3
20190818134017 23 270 8.0 19.3 0.00 0.13 0.10 73 1003.1
20190818133016 23 292 6.4 24.1 0.00 0.13 0.10 74 1003.1
20190818132016 22 292 6.4 17.7 0.00 0.13 0.10 76 1003.1
20190818131016 22 292 3.2 11.3 0.00 0.13 0.10 77 1003.2
20190818130016 21 270 3.2 9.7 0.00 0.13 0.10 79 1003.3
20190818125016 21 292 3.2 8.0 0.00 0.13 0.10 79 1003.5
20190818124016 21 270 3.2 11.3 0.00 0.13 0.10 79 1003.5
20190818123016 21 292 3.2 11.3 0.00 0.13 0.10 79 1003.6
20190818122016 20 292 3.2 9.7 0.00 0.13 0.10 80 1003.8
20190818121016 20 292 4.8 16.1 0.00 0.13 0.10 80 1004.0
20190818120016 20 270 4.8 12.9 0.00 0.13 0.10 79 1004.0
20190818115016 20 292 3.2 12.9 0.00 0.13 0.10 79 1004.1
20190818114016 20 292 3.2 14.5 0.00 0.13 0.10 79 1004.4
20190818113016 20 292 4.8 20.9 0.00 0.13 0.10 79 1004.4
20190818112016 20 270 3.2 9.7 0.00 0.13 0.10 79 1004.4
20190818111016 20 292 3.2 11.3 0.00 0.13 0.10 80 1004.4
20190818110016 20 292 3.2 9.7 0.00 0.13 0.10 80 1004.6